Time;durP1;ratioP1;P1;durP2;ratioP2;P2;SDS_P1;SDS_P2;PMS_P1;PMS_P2;Temp;Humidity;BMP_temperature;BMP_pressure;BME280_temperature;BME280_humidity;BME280_pressure;Samples;Min_cycle;Max_cycle;Signal;HPM_P1;HPM_P2
2022/10/14 00:00:41;;;;;;;36.80;29.57;;;;;;;9.26;100.00;97239.25;5019725;28;20714;-60
2022/10/14 00:03:09;;;;;;;38.27;30.80;;;;;;;9.27;100.00;97240.09;4947332;28;20226;-61
2022/10/14 00:05:42;;;;;;;41.77;31.07;;;;;;;9.26;100.00;97235.81;5021216;28;20531;-60
2022/10/14 00:08:10;;;;;;;38.27;31.00;;;;;;;9.23;100.00;97239.59;4999073;28;20809;-58
2022/10/14 00:10:39;;;;;;;43.83;32.37;;;;;;;9.20;100.00;97232.03;4993686;28;20305;-59
2022/10/14 00:13:07;;;;;;;35.90;29.53;;;;;;;9.18;100.00;97228.72;4992264;28;20211;-61
2022/10/14 00:15:39;;;;;;;43.50;32.53;;;;;;;9.14;100.00;97232.72;5002991;28;20393;-58
2022/10/14 00:18:08;;;;;;;40.03;30.60;;;;;;;9.13;100.00;97228.44;4971703;28;20242;-59
2022/10/14 00:20:36;;;;;;;42.07;32.07;;;;;;;9.11;100.00;97235.72;5017406;28;20296;-59
2022/10/14 00:23:06;;;;;;;38.60;29.77;;;;;;;9.09;100.00;97233.25;5021139;28;20615;-61
2022/10/14 00:25:38;;;;;;;40.07;30.30;;;;;;;9.09;100.00;97227.13;4981790;28;22228;-59
2022/10/14 00:28:06;;;;;;;42.00;29.60;;;;;;;9.02;100.00;97226.19;4990389;28;20210;-60
2022/10/14 00:30:34;;;;;;;43.37;31.80;;;;;;;9.09;100.00;97241.19;5005718;28;20661;-59
2022/10/14 00:33:03;;;;;;;42.40;29.83;;;;;;;9.11;100.00;97238.34;5012545;28;20203;-59
2022/10/14 00:35:31;;;;;;;39.30;31.00;;;;;;;9.10;100.00;97240.19;4986828;28;20860;-59
2022/10/14 00:38:00;;;;;;;39.07;30.40;;;;;;;9.09;100.00;97249.13;5020259;28;20386;-58
2022/10/14 00:40:29;;;;;;;35.80;28.60;;;;;;;9.06;100.00;97238.06;4995663;28;20392;-60
2022/10/14 00:42:57;;;;;;;39.87;29.27;;;;;;;9.02;100.00;97242.84;4997229;28;20901;-60
2022/10/14 00:45:26;;;;;;;42.90;29.67;;;;;;;9.03;100.00;97244.50;4964284;28;20570;-60
2022/10/14 00:47:54;;;;;;;40.43;30.17;;;;;;;8.97;100.00;97238.09;5021589;28;20366;-60
2022/10/14 00:50:22;;;;;;;36.37;29.93;;;;;;;9.04;100.00;97240.06;4963808;28;20213;-60
2022/10/14 00:52:51;;;;;;;36.87;29.57;;;;;;;9.08;100.00;97241.34;5013371;28;20721;-60
2022/10/14 00:55:19;;;;;;;38.80;30.67;;;;;;;9.12;100.00;97248.78;4996909;28;20231;-61
2022/10/14 00:57:49;;;;;;;36.77;28.23;;;;;;;9.19;100.00;97242.78;5025998;28;20264;-61
2022/10/14 01:00:19;;;;;;;40.70;30.57;;;;;;;9.16;100.00;97241.31;5025675;28;20738;-61
2022/10/14 01:02:48;;;;;;;36.67;29.40;;;;;;;9.19;100.00;97243.59;5028205;28;20207;-59
2022/10/14 01:05:18;;;;;;;43.93;31.47;;;;;;;9.22;100.00;97248.53;5026380;28;20237;-58
2022/10/14 01:07:54;;;;;;;45.57;32.37;;;;;;;9.22;100.00;97243.25;5025137;28;20194;-59
2022/10/14 01:10:31;;;;;;;43.20;31.93;;;;;;;9.21;100.00;97246.09;5023961;28;20804;-59
2022/10/14 01:13:11;;;;;;;50.53;33.43;;;;;;;9.17;100.00;97240.31;5028601;28;20278;-59
2022/10/14 01:15:44;;;;;;;44.67;32.30;;;;;;;9.17;100.00;97239.50;5027773;28;20226;-60
2022/10/14 01:18:20;;;;;;;50.00;34.60;;;;;;;9.18;100.00;97249.88;5023328;28;20226;-59
2022/10/14 01:21:03;;;;;;;49.90;33.97;;;;;;;9.09;100.00;97232.44;5014791;28;21275;-59
2022/10/14 01:23:53;;;;;;;44.77;34.03;;;;;;;9.20;100.00;97244.44;5025071;28;20218;-59
2022/10/14 01:26:37;;;;;;;50.97;35.83;;;;;;;9.20;100.00;97245.25;5026462;28;20233;-54
2022/10/14 01:29:16;;;;;;;54.63;35.80;;;;;;;9.22;100.00;97243.25;5029013;28;20582;-60
2022/10/14 01:31:49;;;;;;;53.37;33.13;;;;;;;9.25;100.00;97242.91;5027210;28;20589;-56
2022/10/14 01:34:21;;;;;;;59.23;34.63;;;;;;;9.24;100.00;97241.25;5025982;28;20217;-58
2022/10/14 01:36:53;;;;;;;50.10;36.23;;;;;;;9.25;100.00;97247.38;5025450;28;20203;-59
2022/10/14 01:39:24;;;;;;;49.53;34.87;;;;;;;9.23;100.00;97241.44;5025775;28;20772;-59
2022/10/14 01:41:55;;;;;;;46.13;34.40;;;;;;;9.24;100.00;97235.97;5024726;28;20213;-56
2022/10/14 01:44:24;;;;;;;63.33;36.43;;;;;;;9.25;100.00;97242.91;5026541;28;21086;-59
2022/10/14 01:46:55;;;;;;;55.33;36.17;;;;;;;9.26;100.00;97235.81;5024232;28;20872;-60
2022/10/14 01:49:28;;;;;;;52.27;34.70;;;;;;;9.27;100.00;97240.09;5021982;28;20287;-61
2022/10/14 01:52:01;;;;;;;57.20;36.13;;;;;;;9.28;100.00;97228.53;5024476;28;20211;-60
2022/10/14 01:54:32;;;;;;;47.83;33.67;;;;;;;9.30;100.00;97237.09;5017519;28;20234;-59
2022/10/14 01:57:03;;;;;;;55.40;34.00;;;;;;;9.32;100.00;97232.47;5027899;28;20213;-57
2022/10/14 01:59:32;;;;;;;58.03;36.03;;;;;;;9.34;100.00;97238.41;5023684;28;20230;-59
2022/10/14 02:02:01;;;;;;;47.77;34.43;;;;;;;9.31;100.00;97236.09;5025366;28;20824;-59
2022/10/14 02:04:30;;;;;;;47.23;33.23;;;;;;;9.31;100.00;97235.28;5024165;28;20203;-57
2022/10/14 02:07:04;;;;;;;43.23;32.07;;;;;;;9.32;100.00;97226.38;5026882;28;20203;-60
2022/10/14 02:09:39;;;;;;;51.87;33.60;;;;;;;9.30;100.00;97229.16;5023277;28;20432;-57
2022/10/14 02:12:14;;;;;;;49.63;33.70;;;;;;;9.34;100.00;97229.66;5024218;28;20641;-59
2022/10/14 02:14:46;;;;;;;47.37;34.00;;;;;;;9.43;100.00;97223.31;5025666;28;20671;-59
2022/10/14 02:17:20;;;;;;;47.00;33.10;;;;;;;9.40;100.00;97224.47;5028839;28;20386;-59
2022/10/14 02:19:52;;;;;;;44.77;32.27;;;;;;;9.39;100.00;97228.09;5024892;28;20226;-58
2022/10/14 02:22:25;;;;;;;47.73;32.70;;;;;;;9.47;100.00;97232.53;5026289;28;20807;-60
2022/10/14 02:24:55;;;;;;;45.13;32.97;;;;;;;9.38;100.00;97217.72;5023201;28;20230;-59
2022/10/14 02:27:25;;;;;;;45.70;31.77;;;;;;;9.43;100.00;97231.25;5024780;28;20213;-62
2022/10/14 02:29:54;;;;;;;51.90;33.07;;;;;;;9.40;100.00;97232.41;5022806;28;20199;-56
2022/10/14 02:32:24;;;;;;;49.27;34.40;;;;;;;9.39;100.00;97217.53;5024997;28;20206;-60
2022/10/14 02:34:55;;;;;;;43.53;32.73;;;;;;;9.42;100.00;97224.31;5025578;28;20241;-61
2022/10/14 02:37:23;;;;;;;49.37;34.33;;;;;;;9.40;100.00;97229.75;5025151;28;20205;-61
2022/10/14 02:39:55;;;;;;;44.57;31.93;;;;;;;9.42;100.00;97226.94;5025345;28;20495;-61
2022/10/14 02:42:23;;;;;;;44.10;32.53;;;;;;;9.44;100.00;97226.75;5025292;28;20927;-59
2022/10/14 02:44:53;;;;;;;48.17;33.40;;;;;;;9.48;100.00;97228.06;5025092;28;20301;-58
2022/10/14 02:47:23;;;;;;;46.73;32.87;;;;;;;9.48;100.00;97228.88;5028189;28;20202;-61
2022/10/14 02:49:51;;;;;;;50.43;33.23;;;;;;;9.51;100.00;97225.88;5027932;28;20203;-58
2022/10/14 02:52:20;;;;;;;49.13;35.33;;;;;;;9.44;100.00;97219.66;5022509;28;20207;-60
2022/10/14 02:54:49;;;;;;;51.67;35.10;;;;;;;9.44;100.00;97224.94;5025060;28;20231;-61
2022/10/14 02:57:17;;;;;;;52.57;32.40;;;;;;;9.50;100.00;97218.97;5025621;28;20206;-58
2022/10/14 02:59:45;;;;;;;47.83;33.40;;;;;;;9.49;100.00;97217.31;5025051;28;20226;-57
2022/10/14 03:02:13;;;;;;;53.10;32.83;;;;;;;9.52;100.00;97221.44;5006208;28;20215;-61
2022/10/14 03:04:43;;;;;;;54.43;35.10;;;;;;;9.52;100.00;97222.25;5000318;28;20203;-58
2022/10/14 03:07:11;;;;;;;55.10;34.83;;;;;;;9.50;100.00;97218.97;5024780;28;20219;-60
2022/10/14 03:09:39;;;;;;;48.07;32.67;;;;;;;9.51;100.00;97220.59;5023590;28;20206;-60
2022/10/14 03:12:07;;;;;;;49.50;33.90;;;;;;;9.43;100.00;97210.09;5023072;28;20215;-60
2022/10/14 03:14:35;;;;;;;52.30;34.83;;;;;;;9.52;100.00;97216.94;5025244;28;20213;-62
2022/10/14 03:17:03;;;;;;;48.63;32.73;;;;;;;9.49;100.00;97216.50;5025920;28;20215;-58
2022/10/14 03:19:33;;;;;;;47.77;33.67;;;;;;;9.51;100.00;97209.22;5025405;28;20673;-57
2022/10/14 03:22:03;;;;;;;52.93;35.33;;;;;;;9.50;100.00;97218.97;5025844;28;20798;-57
2022/10/14 03:24:31;;;;;;;53.30;34.27;;;;;;;9.54;100.00;97225.53;5023224;28;20727;-56
2022/10/14 03:26:59;;;;;;;51.50;35.93;;;;;;;9.49;100.00;97219.94;5024701;28;20211;-58
2022/10/14 03:29:28;;;;;;;46.57;34.27;;;;;;;9.51;100.00;97217.97;5018095;28;20908;-57
2022/10/14 03:31:56;;;;;;;49.57;35.67;;;;;;;9.60;100.00;97221.38;5010811;28;20207;-58
2022/10/14 03:34:24;;;;;;;55.03;35.63;;;;;;;9.56;100.00;97222.72;5008581;28;20458;-61
2022/10/14 03:36:52;;;;;;;55.17;36.87;;;;;;;9.52;100.00;97195.00;5023584;28;20699;-58
2022/10/14 03:39:21;;;;;;;55.97;36.47;;;;;;;9.50;100.00;97208.38;5022335;28;20366;-58
2022/10/14 03:41:50;;;;;;;58.43;35.90;;;;;;;9.53;100.00;97201.91;5024659;28;20688;-58
2022/10/14 03:44:18;;;;;;;54.07;34.83;;;;;;;9.59;100.00;97198.56;5023415;28;20792;-56
2022/10/14 03:46:46;;;;;;;67.43;37.17;;;;;;;9.53;100.00;97194.78;5024250;28;20227;-60
2022/10/14 03:49:14;;;;;;;52.93;37.33;;;;;;;9.55;100.00;97192.00;5024485;28;20202;-54
2022/10/14 03:51:42;;;;;;;56.80;37.40;;;;;;;9.60;100.00;97186.97;5024989;28;20233;-58
2022/10/14 03:54:10;;;;;;;55.30;35.60;;;;;;;9.61;100.00;97188.63;5026666;28;20345;-60
2022/10/14 03:56:40;;;;;;;55.17;36.20;;;;;;;9.59;100.00;97187.97;5025893;28;20225;-59
2022/10/14 03:59:08;;;;;;;57.10;36.00;;;;;;;9.58;100.00;97182.84;5024243;28;20498;-59
2022/10/14 04:01:36;;;;;;;62.00;36.70;;;;;;;9.48;100.00;97172.53;5022155;28;21937;-59
2022/10/14 04:04:04;;;;;;;54.40;36.47;;;;;;;9.60;100.00;97180.84;5023146;28;20207;-59
2022/10/14 04:06:32;;;;;;;58.67;36.60;;;;;;;9.60;100.00;97183.50;5022939;28;20318;-59
2022/10/14 04:09:00;;;;;;;60.73;39.37;;;;;;;9.59;100.00;97184.50;5023432;28;20675;-57
2022/10/14 04:11:28;;;;;;;54.47;36.07;;;;;;;9.59;100.00;97173.91;5022014;28;20671;-56
2022/10/14 04:13:59;;;;;;;50.67;34.60;;;;;;;9.61;100.00;97177.22;5024947;28;20705;-59
2022/10/14 04:16:27;;;;;;;59.60;36.20;;;;;;;9.59;100.00;97177.41;5022063;28;20652;-59
2022/10/14 04:18:55;;;;;;;60.77;36.70;;;;;;;9.62;100.00;97169.09;5023344;28;20430;-58
2022/10/14 04:21:23;;;;;;;53.73;36.80;;;;;;;9.62;100.00;97176.22;5024414;28;20222;-62
2022/10/14 04:23:52;;;;;;;61.80;37.20;;;;;;;9.59;100.00;97174.75;5026557;28;20391;-57
2022/10/14 04:26:20;;;;;;;57.57;38.00;;;;;;;9.63;100.00;97178.69;5026644;28;20626;-60
2022/10/14 04:28:48;;;;;;;55.13;37.43;;;;;;;9.60;100.00;97180.84;5028842;28;20442;-61
2022/10/14 04:31:18;;;;;;;55.30;37.33;;;;;;;9.63;100.00;97183.97;5028459;28;20720;-58
2022/10/14 04:33:46;;;;;;;51.33;37.23;;;;;;;9.66;100.00;97180.13;5027983;28;20539;-58
2022/10/14 04:36:14;;;;;;;50.20;35.87;;;;;;;9.69;100.00;97180.63;5026896;28;20234;-58
2022/10/14 04:38:42;;;;;;;53.57;38.07;;;;;;;9.64;100.00;97185.63;5028659;28;20578;-61
2022/10/14 04:41:10;;;;;;;65.77;38.60;;;;;;;9.59;100.00;97179.22;5026692;28;20559;-60
2022/10/14 04:43:38;;;;;;;60.20;38.40;;;;;;;9.63;100.00;97180.50;5028133;28;20690;-59
2022/10/14 04:46:07;;;;;;;52.57;35.60;;;;;;;9.65;100.00;97170.56;5025729;28;20895;-57
2022/10/14 04:48:37;;;;;;;57.33;37.40;;;;;;;9.62;100.00;97173.56;5026095;28;20218;-61
2022/10/14 04:51:05;;;;;;;59.57;36.87;;;;;;;9.64;100.00;97171.56;5027013;28;21252;-59
2022/10/14 04:53:33;;;;;;;51.33;37.30;;;;;;;9.64;100.00;97174.19;5026609;28;20207;-59
2022/10/14 04:56:01;;;;;;;57.60;36.20;;;;;;;9.61;100.00;97158.69;5027678;28;20238;-60
2022/10/14 04:58:29;;;;;;;52.23;37.97;;;;;;;9.67;100.00;97166.75;5025867;28;20199;-60
2022/10/14 05:00:58;;;;;;;62.40;36.83;;;;;;;9.67;100.00;97172.03;5027076;28;20222;-59
2022/10/14 05:03:26;;;;;;;60.40;38.60;;;;;;;9.66;100.00;97175.69;5025892;28;20211;-58
2022/10/14 05:05:55;;;;;;;59.97;38.90;;;;;;;9.73;100.00;97169.66;5027350;28;20369;-59
2022/10/14 05:08:23;;;;;;;72.30;39.60;;;;;;;9.70;100.00;97160.28;5028030;28;21751;-59
2022/10/14 05:10:51;;;;;;;60.97;36.93;;;;;;;9.66;100.00;97169.56;5026388;28;21579;-60
2022/10/14 05:13:20;;;;;;;76.47;40.67;;;;;;;9.67;100.00;97158.81;5028421;28;20275;-57
2022/10/14 05:15:48;;;;;;;61.03;39.23;;;;;;;9.67;100.00;97158.81;5026967;28;20241;-59
2022/10/14 05:18:16;;;;;;;61.40;39.87;;;;;;;9.66;100.00;97156.31;5026392;28;20218;-59
2022/10/14 05:20:44;;;;;;;63.93;38.07;;;;;;;9.64;100.00;97156.53;5023416;28;20222;-59
2022/10/14 05:23:14;;;;;;;59.07;39.33;;;;;;;9.68;100.00;97154.34;5024955;28;20199;-59
2022/10/14 05:25:42;;;;;;;59.87;37.23;;;;;;;9.65;100.00;97150.22;5025798;28;20219;-58
2022/10/14 05:28:10;;;;;;;66.17;39.07;;;;;;;9.64;100.00;97153.88;5025425;28;20701;-58
2022/10/14 05:30:39;;;;;;;58.53;37.60;;;;;;;9.68;100.00;97152.53;5024959;28;20586;-58
2022/10/14 05:33:07;;;;;;;68.97;40.80;;;;;;;9.69;100.00;97150.72;5025551;28;20766;-56
2022/10/14 05:35:35;;;;;;;59.50;38.80;;;;;;;9.68;100.00;97149.88;5027115;28;22518;-54
2022/10/14 05:38:24;;;;;;;69.90;37.77;;;;;;;9.74;100.00;97150.16;5027849;28;20215;-57
2022/10/14 05:40:53;;;;;;;60.10;37.77;;;;;;;9.68;100.00;97149.88;5025719;28;20226;-59
2022/10/14 05:43:23;;;;;;;60.70;37.53;;;;;;;9.72;100.00;97158.28;5026514;28;20199;-59
2022/10/14 05:45:57;;;;;;;56.47;38.93;;;;;;;9.74;100.00;97151.00;5025140;28;20720;-56
2022/10/14 05:48:26;;;;;;;58.93;38.57;;;;;;;9.72;100.00;97158.28;5025233;28;20241;-58
2022/10/14 05:50:54;;;;;;;58.03;36.50;;;;;;;9.68;100.00;97151.72;5025224;28;20214;-58
2022/10/14 05:53:22;;;;;;;57.53;36.43;;;;;;;9.70;100.00;97162.94;5027881;28;20206;-60
2022/10/14 05:55:51;;;;;;;60.37;36.73;;;;;;;9.73;100.00;97164.38;5025712;28;21204;-55
2022/10/14 05:58:20;;;;;;;52.57;37.07;;;;;;;9.75;100.00;97165.88;5026057;28;20206;-57
2022/10/14 06:00:48;;;;;;;65.80;38.53;;;;;;;9.70;100.00;97166.38;5025632;28;21747;-56
2022/10/14 06:03:16;;;;;;;61.80;38.27;;;;;;;9.76;100.00;97167.50;5025219;28;20237;-54
2022/10/14 06:05:45;;;;;;;61.67;37.20;;;;;;;9.78;100.00;97167.31;5024527;28;20842;-61
2022/10/14 06:08:13;;;;;;;63.87;36.10;;;;;;;9.77;100.00;97163.84;5024680;28;20480;-59
2022/10/14 06:10:41;;;;;;;58.60;37.60;;;;;;;9.85;100.00;97168.25;5026755;28;20647;-59
2022/10/14 06:13:11;;;;;;;56.60;36.00;;;;;;;9.81;100.00;97175.72;5022352;28;20211;-61
2022/10/14 06:15:39;;;;;;;62.47;39.30;;;;;;;9.79;100.00;97177.72;5022937;28;20378;-55
2022/10/14 06:18:07;;;;;;;56.00;36.27;;;;;;;9.85;100.00;97181.50;5027000;28;20237;-57
2022/10/14 06:20:35;;;;;;;51.87;36.03;;;;;;;9.84;100.00;97174.53;5025830;28;21069;-57
2022/10/14 06:23:03;;;;;;;53.57;36.13;;;;;;;9.90;100.00;97181.78;5023394;28;20439;-58
2022/10/14 06:25:32;;;;;;;57.13;37.77;;;;;;;9.87;100.00;97171.56;5025003;28;20231;-60
2022/10/14 06:28:02;;;;;;;56.27;36.83;;;;;;;9.96;100.00;97174.91;5025172;28;20294;-59
2022/10/14 06:30:32;;;;;;;46.13;33.87;;;;;;;10.00;100.00;97176.19;5023407;28;20237;-57
2022/10/14 06:33:00;;;;;;;51.83;34.57;;;;;;;10.07;100.00;97185.09;5024107;28;21738;-59
2022/10/14 06:35:28;;;;;;;52.40;34.87;;;;;;;9.96;100.00;97181.06;5024462;28;20437;-57
2022/10/14 06:37:56;;;;;;;46.40;32.13;;;;;;;9.98;100.00;97180.84;5024712;28;20446;-58
2022/10/14 06:40:24;;;;;;;48.43;34.73;;;;;;;10.02;100.00;97190.06;5005204;28;20218;-60
2022/10/14 06:42:53;;;;;;;51.53;34.80;;;;;;;10.04;100.00;97190.75;5002644;28;20675;-57
2022/10/14 06:45:21;;;;;;;51.90;33.77;;;;;;;10.10;100.00;97190.03;5024908;28;20234;-61
2022/10/14 06:47:50;;;;;;;48.37;32.40;;;;;;;10.06;100.00;97193.19;5027496;28;20207;-61
2022/10/14 06:50:18;;;;;;;54.53;35.00;;;;;;;10.13;100.00;97189.66;5025604;28;20340;-60
2022/10/14 06:52:47;;;;;;;49.20;32.30;;;;;;;10.21;100.00;97188.72;5027075;28;20198;-60
2022/10/14 06:55:15;;;;;;;49.43;33.60;;;;;;;10.23;100.00;97191.22;5024436;28;21878;-57
2022/10/14 06:57:44;;;;;;;45.60;31.87;;;;;;;10.21;100.00;97195.88;5028023;28;20393;-55
2022/10/14 07:00:13;;;;;;;50.83;34.33;;;;;;;10.24;100.00;97185.75;5027407;28;20420;-58
2022/10/14 07:02:41;;;;;;;46.23;32.90;;;;;;;10.21;100.00;97188.72;5024694;28;20827;-60
2022/10/14 07:05:11;;;;;;;43.03;32.40;;;;;;;10.22;100.00;97198.31;5026165;28;20714;-58
2022/10/14 07:07:39;;;;;;;46.77;34.47;;;;;;;10.28;100.00;97189.66;5028052;28;20726;-59
2022/10/14 07:10:08;;;;;;;40.00;30.93;;;;;;;10.25;100.00;97183.91;5028025;28;21662;-61
2022/10/14 07:12:36;;;;;;;46.33;33.50;;;;;;;10.23;100.00;97183.25;5024498;28;20199;-61
2022/10/14 07:15:05;;;;;;;44.80;32.37;;;;;;;10.39;100.00;97185.72;5026613;28;20265;-58
2022/10/14 07:17:33;;;;;;;44.77;32.97;;;;;;;10.39;100.00;97190.22;5024186;28;20226;-59
2022/10/14 07:20:01;;;;;;;41.83;30.40;;;;;;;10.42;100.00;97185.41;5024927;28;20214;-59
2022/10/14 07:22:31;;;;;;;42.63;32.43;;;;;;;10.41;100.00;97180.28;5026826;28;20222;-60
2022/10/14 07:25:06;;;;;;;42.63;31.33;;;;;;;10.46;100.00;97188.50;5023880;28;20295;-60
2022/10/14 07:27:34;;;;;;;43.17;32.47;;;;;;;10.54;100.00;97188.41;5023490;28;20420;-60
2022/10/14 07:30:03;;;;;;;39.87;32.10;;;;;;;10.65;100.00;97184.47;5024187;28;20492;-59
2022/10/14 07:32:31;;;;;;;49.47;32.83;;;;;;;10.63;100.00;97188.34;5024018;28;20203;-60
2022/10/14 07:34:59;;;;;;;43.77;32.07;;;;;;;10.62;100.00;97184.84;5023761;28;20229;-58
2022/10/14 07:37:27;;;;;;;50.30;32.73;;;;;;;10.62;100.00;97179.53;5025592;28;20681;-58
2022/10/14 07:39:56;;;;;;;42.67;33.33;;;;;;;10.67;100.00;97185.09;5026184;28;20688;-59
2022/10/14 07:42:24;;;;;;;47.17;33.80;;;;;;;10.74;100.00;97187.00;5022407;28;20223;-59
2022/10/14 07:44:53;;;;;;;46.07;34.00;;;;;;;10.73;100.00;97186.22;5023317;28;20280;-60
2022/10/14 07:47:21;;;;;;;45.90;33.50;;;;;;;10.74;100.00;97184.38;5024254;28;20735;-63
2022/10/14 07:49:50;;;;;;;54.23;35.17;;;;;;;10.73;100.00;97185.38;5026064;28;20676;-61
2022/10/14 07:52:19;;;;;;;45.47;34.27;;;;;;;10.82;100.00;97178.97;5025444;28;20930;-60
2022/10/14 07:54:47;;;;;;;44.50;32.57;;;;;;;10.75;100.00;97186.00;5023687;28;20218;-61
2022/10/14 07:57:16;;;;;;;52.50;35.13;;;;;;;10.65;100.00;97181.81;5028474;28;20203;-60
2022/10/14 07:59:45;;;;;;;48.27;33.27;;;;;;;10.72;100.00;97189.88;5028519;28;20214;-58
2022/10/14 08:02:13;;;;;;;43.50;34.47;;;;;;;10.88;100.00;97188.84;5028480;28;20233;-59
2022/10/14 08:04:41;;;;;;;53.07;35.43;;;;;;;10.87;100.00;97184.53;5030859;28;20387;-62
2022/10/14 08:07:09;;;;;;;48.50;33.83;;;;;;;11.06;100.00;97184.94;5028517;28;20210;-59
2022/10/14 08:09:37;;;;;;;47.83;34.20;;;;;;;11.00;100.00;97186.53;5028989;28;20198;-57
2022/10/14 08:12:06;;;;;;;49.53;34.97;;;;;;;11.13;100.00;97184.03;5029058;28;20203;-57
2022/10/14 08:14:36;;;;;;;49.07;35.20;;;;;;;11.17;100.00;97186.28;5027231;28;20466;-58
2022/10/14 08:17:04;;;;;;;47.50;34.30;;;;;;;11.18;100.00;97188.78;5026997;28;20218;-58
2022/10/14 08:19:32;;;;;;;47.07;35.60;;;;;;;11.24;100.00;97185.38;5026178;28;20195;-59
2022/10/14 08:22:00;;;;;;;47.63;34.23;;;;;;;11.41;100.00;97193.06;5027540;28;20203;-60
2022/10/14 08:24:28;;;;;;;42.00;33.77;;;;;;;11.39;100.00;97184.47;5028814;28;20699;-59
2022/10/14 08:26:59;;;;;;;45.37;33.63;;;;;;;11.40;100.00;97191.44;5027676;28;20289;-60
2022/10/14 08:29:28;;;;;;;47.50;35.10;;;;;;;11.43;100.00;97183.94;5027679;28;20199;-59
2022/10/14 08:31:57;;;;;;;46.70;35.70;;;;;;;11.60;100.00;97185.50;5028522;28;20202;-57
2022/10/14 08:34:25;;;;;;;50.80;34.23;;;;;;;11.70;100.00;97186.00;5028946;28;20195;-58
2022/10/14 08:36:53;;;;;;;40.53;32.03;;;;;;;11.81;100.00;97182.00;5027549;28;20214;-59
2022/10/14 08:39:21;;;;;;;43.63;33.57;;;;;;;11.85;100.00;97183.25;5028162;28;20206;-58
2022/10/14 08:42:15;;;;;;;44.37;33.93;;;;;;;12.07;100.00;97192.03;5029125;28;20209;-58
2022/10/14 08:44:45;;;;;;;42.93;34.33;;;;;;;12.15;100.00;97183.91;5029411;28;20210;-59
2022/10/14 08:47:16;;;;;;;39.93;31.53;;;;;;;12.24;100.00;97181.94;5027419;28;20737;-57
2022/10/14 08:49:52;;;;;;;38.50;30.87;;;;;;;12.44;100.00;97187.38;5027033;28;21635;-58
2022/10/14 08:52:23;;;;;;;37.77;29.93;;;;;;;12.38;100.00;97188.16;5026462;28;20388;-60
2022/10/14 08:54:56;;;;;;;33.97;28.80;;;;;;;12.54;100.00;97180.88;5026683;28;20227;-61
2022/10/14 08:57:27;;;;;;;38.70;30.20;;;;;;;12.50;100.00;97182.28;5028085;28;20713;-57
2022/10/14 08:59:56;;;;;;;38.13;30.33;;;;;;;12.76;100.00;97186.09;5025847;28;20214;-60
2022/10/14 09:02:34;;;;;;;38.00;31.07;;;;;;;13.02;100.00;97180.84;5021564;28;20524;-59
2022/10/14 09:05:04;;;;;;;42.83;31.37;;;;;;;12.62;100.00;97180.69;5029183;28;20230;-59
2022/10/14 09:07:33;;;;;;;40.87;26.97;;;;;;;12.48;100.00;97184.31;5027161;28;20213;-58
2022/10/14 09:10:04;;;;;;;41.13;31.47;;;;;;;12.73;100.00;97188.13;5027651;28;21106;-59
2022/10/14 09:12:35;;;;;;;37.47;31.63;;;;;;;12.76;100.00;97183.44;5026920;28;20214;-59
2022/10/14 09:15:08;;;;;;;39.77;32.17;;;;;;;12.90;100.00;97185.13;5026740;28;20230;-60
2022/10/14 09:17:41;;;;;;;44.80;31.43;;;;;;;12.91;100.00;97181.44;5027869;28;20689;-56
2022/10/14 09:20:19;;;;;;;35.60;29.03;;;;;;;12.60;100.00;97174.75;5027076;28;20211;-60
2022/10/14 09:22:58;;;;;;;37.30;30.73;;;;;;;12.60;100.00;97172.09;5028809;28;20299;-59
2022/10/14 09:25:26;;;;;;;35.30;29.23;;;;;;;12.56;100.00;97163.72;5027164;28;20294;-59
2022/10/14 09:27:54;;;;;;;36.33;28.80;;;;;;;12.52;100.00;97166.97;5026318;28;20207;-60
2022/10/14 09:30:22;;;;;;;33.00;28.57;;;;;;;12.73;100.00;97158.88;5025364;28;20795;-59
2022/10/14 09:32:53;;;;;;;31.63;28.07;;;;;;;12.63;100.00;97146.97;5025608;28;20210;-59
2022/10/14 09:35:24;;;;;;;34.93;28.53;;;;;;;12.51;100.00;97155.53;5025011;28;20521;-58
2022/10/14 09:37:52;;;;;;;38.00;28.47;;;;;;;12.69;100.00;97154.16;5029317;28;20242;-59
2022/10/14 09:40:27;;;;;;;32.27;28.23;;;;;;;13.07;100.00;97158.16;5025676;28;20207;-60
2022/10/14 09:42:58;;;;;;;34.20;28.27;;;;;;;13.12;100.00;97153.09;5025644;28;20235;-59
2022/10/14 09:45:27;;;;;;;32.03;25.57;;;;;;;13.40;100.00;97158.25;5012106;28;20249;-59
2022/10/14 09:47:59;;;;;;;31.30;26.27;;;;;;;13.56;100.00;97157.06;5025634;28;22270;-60
2022/10/14 09:50:31;;;;;;;31.73;25.53;;;;;;;13.73;100.00;97148.66;5027022;28;20218;-59
2022/10/14 09:53:02;;;;;;;28.53;25.50;;;;;;;13.83;100.00;97150.94;5024937;28;20203;-58
2022/10/14 09:55:30;;;;;;;27.03;24.20;;;;;;;13.84;100.00;97142.75;5023123;28;20229;-61
2022/10/14 09:58:07;;;;;;;25.23;22.53;;;;;;;13.60;100.00;97142.31;5026632;28;20340;-59
2022/10/14 10:00:36;;;;;;;28.80;23.53;;;;;;;13.56;100.00;97146.41;5025183;28;20211;-61
2022/10/14 10:03:07;;;;;;;30.80;23.20;;;;;;;13.45;100.00;97149.69;5026061;28;20792;-60
2022/10/14 10:05:38;;;;;;;27.57;24.67;;;;;;;13.29;100.00;97146.34;5024173;28;20540;-59
2022/10/14 10:08:15;;;;;;;28.93;23.13;;;;;;;13.43;100.00;97147.22;5026775;28;20766;-61
2022/10/14 10:10:57;;;;;;;26.90;24.03;;;;;;;13.55;100.00;97149.28;5025093;28;20475;-59
2022/10/14 10:13:43;;;;;;;25.90;23.23;;;;;;;13.80;100.00;97135.34;5023343;28;20263;-60
2022/10/14 10:16:21;;;;;;;25.60;22.97;;;;;;;14.27;100.00;97130.78;5024030;28;20219;-59
2022/10/14 10:18:52;;;;;;;24.60;22.03;;;;;;;14.46;100.00;97129.06;5026939;28;20949;-59
2022/10/14 10:21:24;;;;;;;25.57;23.03;;;;;;;14.71;100.00;97136.41;5029716;28;20199;-60
2022/10/14 10:23:56;;;;;;;24.53;21.93;;;;;;;14.96;100.00;97129.53;5027129;28;20245;-59
2022/10/14 10:26:27;;;;;;;23.93;21.53;;;;;;;14.86;100.00;97117.47;5025386;28;20823;-60
2022/10/14 10:28:56;;;;;;;24.27;22.13;;;;;;;14.92;100.00;97118.44;5028856;28;20753;-59
2022/10/14 10:31:43;;;;;;;23.87;21.47;;;;;;;14.99;100.00;97121.91;5025878;28;20205;-60
2022/10/14 10:34:37;;;;;;;23.43;20.90;;;;;;;14.93;100.00;97112.09;5026956;28;21010;-59
2022/10/14 10:37:22;;;;;;;23.70;21.40;;;;;;;15.31;100.00;97108.56;5025057;28;20206;-62
2022/10/14 10:40:13;;;;;;;25.57;21.77;;;;;;;15.29;100.00;97097.28;5024771;28;20242;-60
2022/10/14 10:42:50;;;;;;;23.67;21.23;;;;;;;15.15;100.00;97095.75;5027778;28;20217;-60
2022/10/14 10:45:32;;;;;;;23.53;21.17;;;;;;;14.89;100.00;97102.88;5024810;28;20317;-61
2022/10/14 10:48:08;;;;;;;25.13;22.83;;;;;;;15.40;100.00;97095.78;5027365;28;20218;-61
2022/10/14 10:50:44;;;;;;;24.63;21.13;;;;;;;15.18;100.00;97088.16;5027138;28;21394;-61
2022/10/14 10:53:28;;;;;;;22.67;20.43;;;;;;;14.79;100.00;97086.53;5025406;28;20210;-62
2022/10/14 10:56:05;;;;;;;23.17;20.97;;;;;;;15.04;100.00;97076.75;5024857;28;20735;-61
2022/10/14 10:58:41;;;;;;;22.70;20.30;;;;;;;14.90;100.00;97069.84;5027372;28;21005;-56
2022/10/14 11:01:35;;;;;;;24.17;21.67;;;;;;;14.96;100.00;97068.97;5025071;28;20240;-59
2022/10/14 11:04:30;;;;;;;21.73;19.70;;;;;;;15.52;100.00;97066.53;5024975;28;20229;-59
2022/10/14 11:12:53;;;;;;;19.27;17.33;;;;;;;15.34;100.00;97044.09;5026707;28;20463;-58
2022/10/14 11:15:39;;;;;;;21.07;18.97;;;;;;;15.43;100.00;97047.28;5024473;28;20229;-60
2022/10/14 11:18:10;;;;;;;22.10;19.87;;;;;;;15.37;100.00;97037.47;5022382;28;20579;-61
2022/10/14 11:20:44;;;;;;;19.57;17.70;;;;;;;15.34;100.00;97038.75;5027253;28;20235;-62
2022/10/14 11:23:58;;;;;;;21.23;19.00;;;;;;;15.43;100.00;97027.78;5025738;28;20206;-61
2022/10/14 11:26:40;;;;;;;19.30;17.23;;;;;;;15.12;100.00;97027.59;4960943;28;20228;-61
2022/10/14 11:29:19;;;;;;;19.57;17.70;;;;;;;14.93;100.00;97025.91;4963064;28;20200;-60
2022/10/14 11:31:51;;;;;;;18.13;16.33;;;;;;;15.17;100.00;97026.97;4962245;28;20663;-61
2022/10/14 11:34:30;;;;;;;18.93;17.07;;;;;;;15.47;100.00;97013.78;4960965;28;20863;-60
2022/10/14 11:37:04;;;;;;;17.57;15.80;;;;;;;15.56;100.00;97011.66;4965453;28;20208;-61